Time;durP1;ratioP1;P1;durP2;ratioP2;P2;SDS_P1;SDS_P2;PMS_P1;PMS_P2;Temp;Humidity;BMP_temperature;BMP_pressure;BME280_temperature;BME280_humidity;BME280_pressure;Samples;Min_cycle;Max_cycle;Signal;HPM_P1;HPM_P2
2023/04/18 00:02:37;;;;;;;11.73;8.80;;;;;;;;;;5001311;28;20290;-30
2023/04/18 00:05:21;;;;;;;9.53;7.60;;;;;;;;;;5005708;28;20207;-30
2023/04/18 00:10:46;;;;;;;11.57;8.27;;;;;;;;;;5012322;28;20199;-27
2023/04/18 00:13:21;;;;;;;11.27;7.73;;;;;;;;;;5007819;28;20223;-30
2023/04/18 00:16:07;;;;;;;8.63;7.00;;;;;;;;;;4997192;28;20215;-30
2023/04/18 00:18:49;;;;;;;11.20;8.20;;;;;;;;;;5004828;28;20227;-27
2023/04/18 00:21:32;;;;;;;12.07;8.73;;;;;;;;;;5003839;28;20306;-29
2023/04/18 00:24:15;;;;;;;8.67;6.83;;;;;;;;;;5016605;28;20228;-29
2023/04/18 00:26:53;;;;;;;11.73;8.00;;;;;;;;;;5013533;28;20218;-28
2023/04/18 00:32:34;;;;;;;9.37;7.17;;;;;;;;;;4990896;28;20200;-28
2023/04/18 00:35:16;;;;;;;8.47;5.67;;;;;;;;;;5007346;28;20227;-29
2023/04/18 00:37:53;;;;;;;11.57;8.30;;;;;;;;;;5015324;28;20704;-30
2023/04/18 00:40:37;;;;;;;10.23;7.63;;;;;;;;;;5010914;28;20202;-30
2023/04/18 00:43:25;;;;;;;9.60;7.33;;;;;;;;;;5010824;28;20227;-27
2023/04/18 00:46:01;;;;;;;8.87;7.37;;;;;;;;;;5008644;28;20211;-27
2023/04/18 00:48:50;;;;;;;8.60;7.07;;;;;;;;;;5008475;28;20213;-30
2023/04/18 00:54:15;;;;;;;9.30;7.27;;;;;;;;;;4995563;28;20234;-30
2023/04/18 01:00:07;;;;;;;9.00;6.63;;;;;;;;;;5012527;28;20365;-27
2023/04/18 01:02:40;;;;;;;10.43;7.67;;;;;;;;;;5001444;28;20230;-28
2023/04/18 01:08:21;;;;;;;8.63;6.90;;;;;;;;;;5013684;28;20243;-27
2023/04/18 01:10:55;;;;;;;9.67;7.10;;;;;;;;;;4994292;28;20215;-29
2023/04/18 01:16:32;;;;;;;6.93;5.77;;;;;;;;;;5006226;28;20214;-29
2023/04/18 01:19:12;;;;;;;8.27;6.50;;;;;;;;;;5003684;28;20235;-27
2023/04/18 01:22:00;;;;;;;9.03;7.07;;;;;;;;;;5003050;28;20239;-26
2023/04/18 01:24:54;;;;;;;9.47;7.23;;;;;;;;;;4995469;28;20223;-30
2023/04/18 01:27:30;;;;;;;9.73;7.33;;;;;;;;;;5010646;28;20235;-30
2023/04/18 01:30:05;;;;;;;7.97;6.27;;;;;;;;;;5014981;28;20195;-30
2023/04/18 01:35:16;;;;;;;9.47;6.20;;;;;;;;;;5068813;22;20302;-30
2023/04/18 01:38:02;;;;;;;8.93;6.70;;;;;;;;;;5015130;28;20211;-28
2023/04/18 01:46:52;;;;;;;7.53;6.00;;;;;;;;;;4990781;28;20198;-28
2023/04/18 01:49:31;;;;;;;9.07;6.73;;;;;;;;;;4999032;28;20298;-29
2023/04/18 01:52:18;;;;;;;8.13;6.23;;;;;;;;;;4994132;28;20204;-27
2023/04/18 01:55:10;;;;;;;8.20;6.57;;;;;;;;;;4994580;28;20231;-29
2023/04/18 01:57:49;;;;;;;7.70;6.33;;;;;;;;;;5011895;28;20211;-28
2023/04/18 02:00:33;;;;;;;7.83;6.20;;;;;;;;;;5014416;28;20270;-29
2023/04/18 02:09:06;;;;;;;9.00;6.37;;;;;;;;;;4992914;28;20250;-29
2023/04/18 02:11:43;;;;;;;8.30;6.30;;;;;;;;;;4996289;28;20231;-29
2023/04/18 02:17:09;;;;;;;6.33;5.23;;;;;;;;;;5897849;22;20331;-36
2023/04/18 02:23:09;;;;;;;9.57;5.73;;;;;;;;;;5051247;28;20225;-37
2023/04/18 02:28:37;;;;;;;9.80;5.93;;;;;;;;;;5018702;28;20214;-36
2023/04/18 02:31:37;;;;;;;7.07;5.37;;;;;;;;;;5050574;28;20218;-38
2023/04/18 02:34:18;;;;;;;6.83;4.90;;;;;;;;;;5033630;28;20353;-33
2023/04/18 02:37:08;;;;;;;6.30;5.60;;;;;;;;;;5053544;28;20221;-33
2023/04/18 02:39:52;;;;;;;9.27;5.83;;;;;;;;;;5048247;28;20208;-38
2023/04/18 02:42:19;;;;;;;8.53;5.87;;;;;;;;;;5062847;22;20211;-27
2023/04/18 02:44:46;;;;;;;8.73;6.67;;;;;;;;;;5005077;28;20238;-27
2023/04/18 02:47:13;;;;;;;6.90;5.77;;;;;;;;;;4998491;28;20211;-26
2023/04/18 02:49:40;;;;;;;6.53;5.60;;;;;;;;;;4998599;28;20212;-27
2023/04/18 02:52:08;;;;;;;8.40;6.37;;;;;;;;;;4991812;28;20226;-26
2023/04/18 02:54:35;;;;;;;8.17;6.23;;;;;;;;;;4992987;28;20239;-29
2023/04/18 02:57:04;;;;;;;7.67;5.97;;;;;;;;;;5006116;28;20204;-27
2023/04/18 02:59:31;;;;;;;6.10;5.27;;;;;;;;;;5008215;28;20202;-26
2023/04/18 03:01:58;;;;;;;6.27;5.20;;;;;;;;;;4990051;28;20227;-28
2023/04/18 03:04:25;;;;;;;8.10;5.83;;;;;;;;;;5001636;28;20282;-28
2023/04/18 03:06:54;;;;;;;9.10;6.20;;;;;;;;;;5005463;28;20203;-28
2023/04/18 03:09:22;;;;;;;7.57;5.63;;;;;;;;;;5007192;28;20204;-26
2023/04/18 03:11:49;;;;;;;6.70;5.27;;;;;;;;;;5002770;28;20199;-31
2023/04/18 03:14:17;;;;;;;7.00;5.13;;;;;;;;;;5005690;28;20225;-26
2023/04/18 03:16:45;;;;;;;7.97;6.20;;;;;;;;;;5009701;28;20208;-29
2023/04/18 03:19:12;;;;;;;7.50;5.50;;;;;;;;;;5005426;28;20206;-26
2023/04/18 03:21:39;;;;;;;9.60;6.47;;;;;;;;;;4994761;28;20303;-30
2023/04/18 03:24:07;;;;;;;8.60;5.90;;;;;;;;;;4991536;28;20220;-26
2023/04/18 03:26:48;;;;;;;8.73;6.20;;;;;;;;;;5005372;28;20218;-28
2023/04/18 03:29:15;;;;;;;6.67;5.60;;;;;;;;;;4996972;28;20200;-26
2023/04/18 03:31:44;;;;;;;8.87;5.63;;;;;;;;;;5007451;28;20203;-30
2023/04/18 03:34:11;;;;;;;6.53;5.50;;;;;;;;;;5003795;28;20242;-27
2023/04/18 03:36:38;;;;;;;10.07;6.07;;;;;;;;;;4998892;28;20199;-27
2023/04/18 03:39:05;;;;;;;9.67;7.17;;;;;;;;;;4996452;28;20415;-27
2023/04/18 03:41:32;;;;;;;8.20;6.03;;;;;;;;;;5004647;28;20227;-27
2023/04/18 03:43:59;;;;;;;6.83;5.60;;;;;;;;;;5005106;28;20253;-27
2023/04/18 03:46:27;;;;;;;10.90;6.07;;;;;;;;;;4999947;28;20208;-30
2023/04/18 03:48:55;;;;;;;8.27;6.33;;;;;;;;;;4997200;28;20192;-27
2023/04/18 03:51:22;;;;;;;7.77;5.70;;;;;;;;;;5010247;28;20196;-27
2023/04/18 03:53:49;;;;;;;7.80;5.97;;;;;;;;;;5013595;28;20302;-28
2023/04/18 03:56:17;;;;;;;7.20;5.70;;;;;;;;;;5000771;28;20202;-26
2023/04/18 03:58:44;;;;;;;8.03;5.30;;;;;;;;;;5005682;28;20206;-29
2023/04/18 04:01:11;;;;;;;6.43;5.23;;;;;;;;;;5007263;28;20207;-28
2023/04/18 04:03:38;;;;;;;9.43;6.10;;;;;;;;;;5007747;28;20313;-26
2023/04/18 04:06:07;;;;;;;9.57;6.23;;;;;;;;;;4997567;28;20212;-28
2023/04/18 04:08:34;;;;;;;7.57;6.07;;;;;;;;;;5013765;28;20424;-28
2023/04/18 04:11:01;;;;;;;10.03;7.17;;;;;;;;;;5006599;28;20208;-28
2023/04/18 04:13:29;;;;;;;6.93;5.50;;;;;;;;;;5002020;28;20212;-27
2023/04/18 04:15:56;;;;;;;8.90;6.83;;;;;;;;;;5007620;28;20204;-26
2023/04/18 04:18:28;;;;;;;8.83;6.77;;;;;;;;;;4999935;28;20206;-28
2023/04/18 04:20:55;;;;;;;6.40;5.73;;;;;;;;;;5012640;28;20213;-25
2023/04/18 04:23:24;;;;;;;8.67;6.50;;;;;;;;;;5013383;28;20225;-26
2023/04/18 04:25:52;;;;;;;11.47;7.10;;;;;;;;;;5005478;28;20230;-27
2023/04/18 04:28:21;;;;;;;9.53;6.80;;;;;;;;;;5004876;28;20195;-28
2023/04/18 04:30:49;;;;;;;9.87;6.50;;;;;;;;;;5010012;28;20200;-26
2023/04/18 04:33:16;;;;;;;8.63;6.90;;;;;;;;;;5003679;28;20219;-28
2023/04/18 04:35:43;;;;;;;9.13;6.20;;;;;;;;;;5004474;28;20282;-26
2023/04/18 04:38:11;;;;;;;7.97;6.63;;;;;;;;;;5013808;28;20205;-27
2023/04/18 04:40:39;;;;;;;7.40;5.90;;;;;;;;;;5010553;28;20200;-28
2023/04/18 04:43:06;;;;;;;9.77;7.03;;;;;;;;;;5004741;28;20227;-27
2023/04/18 04:45:35;;;;;;;8.67;5.80;;;;;;;;;;4995828;28;20200;-28
2023/04/18 04:48:02;;;;;;;9.17;6.93;;;;;;;;;;5002116;28;20203;-25
2023/04/18 04:50:29;;;;;;;10.53;7.00;;;;;;;;;;4996566;28;20199;-26
2023/04/18 04:52:56;;;;;;;8.50;6.63;;;;;;;;;;4994336;28;20230;-28
2023/04/18 04:55:23;;;;;;;8.27;6.77;;;;;;;;;;4994155;28;20215;-27
2023/04/18 04:57:52;;;;;;;7.83;5.83;;;;;;;;;;5000139;28;20231;-26
2023/04/18 05:00:20;;;;;;;8.87;7.07;;;;;;;;;;4999045;28;20215;-26
2023/04/18 05:02:47;;;;;;;9.03;7.23;;;;;;;;;;5000219;28;20219;-29
2023/04/18 05:05:14;;;;;;;9.47;6.37;;;;;;;;;;5010989;28;20205;-27
2023/04/18 05:07:41;;;;;;;8.47;6.40;;;;;;;;;;4996769;28;20206;-28
2023/04/18 05:10:09;;;;;;;8.33;6.40;;;;;;;;;;4994020;28;20552;-28
2023/04/18 05:12:36;;;;;;;10.23;6.73;;;;;;;;;;4996570;28;20219;-23
2023/04/18 05:15:05;;;;;;;7.83;6.67;;;;;;;;;;5013549;28;20198;-27
2023/04/18 05:17:32;;;;;;;9.80;7.27;;;;;;;;;;4999810;28;20199;-28
2023/04/18 05:19:59;;;;;;;8.63;6.47;;;;;;;;;;5005163;28;20318;-29
2023/04/18 05:22:27;;;;;;;8.17;7.03;;;;;;;;;;4998176;28;20274;-25
2023/04/18 05:24:54;;;;;;;8.57;6.47;;;;;;;;;;5012335;28;20231;-27
2023/04/18 05:27:21;;;;;;;10.67;7.43;;;;;;;;;;5007381;28;20203;-28
2023/04/18 05:29:49;;;;;;;10.17;7.23;;;;;;;;;;5002257;28;20200;-27
2023/04/18 05:32:17;;;;;;;9.60;7.73;;;;;;;;;;5000573;28;20235;-26
2023/04/18 05:34:44;;;;;;;9.27;7.17;;;;;;;;;;4997566;28;20220;-27
2023/04/18 05:37:12;;;;;;;8.40;6.60;;;;;;;;;;4996530;28;20206;-29
2023/04/18 05:39:40;;;;;;;9.23;6.07;;;;;;;;;;5005698;28;20226;-26
2023/04/18 05:42:07;;;;;;;9.33;7.17;;;;;;;;;;5003348;28;20231;-27
2023/04/18 05:44:34;;;;;;;9.63;6.90;;;;;;;;;;5001655;28;20223;-29
2023/04/18 05:47:04;;;;;;;8.23;6.20;;;;;;;;;;4992999;28;20209;-26
2023/04/18 05:49:33;;;;;;;8.60;7.43;;;;;;;;;;5004024;28;20209;-29
2023/04/18 05:52:00;;;;;;;9.40;6.63;;;;;;;;;;4994080;28;20211;-29
2023/04/18 05:54:27;;;;;;;10.07;7.50;;;;;;;;;;4993693;28;20227;-28
2023/04/18 05:56:55;;;;;;;9.47;6.20;;;;;;;;;;5005788;28;20266;-24
2023/04/18 05:59:22;;;;;;;11.30;7.80;;;;;;;;;;5013608;28;20203;-26
2023/04/18 06:01:50;;;;;;;9.27;6.97;;;;;;;;;;5007454;28;20203;-28
2023/04/18 06:04:17;;;;;;;10.30;7.90;;;;;;;;;;4993735;28;20278;-28
2023/04/18 06:06:46;;;;;;;9.97;7.60;;;;;;;;;;5013332;28;20195;-27
2023/04/18 06:09:13;;;;;;;11.40;6.80;;;;;;;;;;5010373;28;20200;-26
2023/04/18 06:11:40;;;;;;;10.17;8.20;;;;;;;;;;5006449;28;20250;-25
2023/04/18 06:14:07;;;;;;;10.67;8.17;;;;;;;;;;4999815;28;20302;-28
2023/04/18 06:16:34;;;;;;;9.77;7.80;;;;;;;;;;5011937;28;20199;-26
2023/04/18 06:19:02;;;;;;;9.20;7.10;;;;;;;;;;5003372;28;20251;-30
2023/04/18 06:21:32;;;;;;;9.27;7.17;;;;;;;;;;4993324;28;20200;-26
2023/04/18 06:24:01;;;;;;;11.33;8.13;;;;;;;;;;4994023;28;20233;-25
2023/04/18 06:26:29;;;;;;;12.13;8.07;;;;;;;;;;4996605;28;20224;-28
2023/04/18 06:28:56;;;;;;;9.70;8.17;;;;;;;;;;5000333;28;20203;-26
2023/04/18 06:31:23;;;;;;;9.37;7.80;;;;;;;;;;4997842;28;20200;-27
2023/04/18 06:33:50;;;;;;;10.73;7.50;;;;;;;;;;5001219;28;20226;-28
2023/04/18 06:36:17;;;;;;;11.73;7.67;;;;;;;;;;5008414;28;20211;-25
2023/04/18 06:38:45;;;;;;;10.60;7.73;;;;;;;;;;5012853;28;20209;-24
2023/04/18 06:41:16;;;;;;;11.63;8.83;;;;;;;;;;5003431;28;20203;-26
2023/04/18 06:43:44;;;;;;;12.03;8.23;;;;;;;;;;5005094;28;20230;-27
2023/04/18 06:46:11;;;;;;;10.73;8.13;;;;;;;;;;5000462;28;20208;-27
2023/04/18 06:48:38;;;;;;;11.27;8.67;;;;;;;;;;4997731;28;20196;-29
2023/04/18 06:51:05;;;;;;;10.17;8.27;;;;;;;;;;5011843;28;20195;-28
2023/04/18 06:53:32;;;;;;;11.17;7.63;;;;;;;;;;5012725;28;20229;-29
2023/04/18 06:56:00;;;;;;;10.03;7.60;;;;;;;;;;5008753;28;20199;-25
2023/04/18 06:58:29;;;;;;;11.80;9.10;;;;;;;;;;4995694;28;20735;-26
2023/04/18 07:00:56;;;;;;;11.03;7.87;;;;;;;;;;4991642;28;20298;-29
2023/04/18 07:03:23;;;;;;;10.27;7.53;;;;;;;;;;5008655;28;20246;-30
2023/04/18 07:05:50;;;;;;;11.10;6.83;;;;;;;;;;5004000;28;20195;-26
2023/04/18 07:08:17;;;;;;;10.70;7.80;;;;;;;;;;5012287;28;20202;-24
2023/04/18 07:10:44;;;;;;;8.40;6.60;;;;;;;;;;5006836;28;20228;-30
2023/04/18 07:13:11;;;;;;;12.53;8.57;;;;;;;;;;4995765;28;20239;-26
2023/04/18 07:15:40;;;;;;;2.93;2.63;;;;;;;;;;4992975;28;20200;-27
2023/04/18 07:18:07;;;;;;;9.93;7.63;;;;;;;;;;5005271;28;20207;-25
2023/04/18 07:20:34;;;;;;;10.10;7.20;;;;;;;;;;5000784;28;20286;-27
2023/04/18 07:23:02;;;;;;;11.60;7.97;;;;;;;;;;4993625;28;20238;-29
2023/04/18 07:25:29;;;;;;;9.80;8.13;;;;;;;;;;4993179;28;20287;-25
2023/04/18 07:27:56;;;;;;;12.20;8.13;;;;;;;;;;4998025;28;20207;-28
2023/04/18 07:30:23;;;;;;;13.07;8.67;;;;;;;;;;5000765;28;20290;-27
2023/04/18 07:32:52;;;;;;;9.90;7.73;;;;;;;;;;5001483;28;20334;-27
2023/04/18 07:35:19;;;;;;;13.97;10.17;;;;;;;;;;5004508;28;20200;-28
2023/04/18 07:37:46;;;;;;;14.47;9.13;;;;;;;;;;5013008;28;20199;-26
2023/04/18 07:40:15;;;;;;;13.80;10.30;;;;;;;;;;5009830;28;20673;-28
2023/04/18 07:42:43;;;;;;;12.57;9.33;;;;;;;;;;4992584;28;20223;-26
2023/04/18 07:45:10;;;;;;;13.13;8.97;;;;;;;;;;5007068;28;20254;-30
2023/04/18 07:47:37;;;;;;;12.87;8.43;;;;;;;;;;5003640;28;20196;-28
2023/04/18 07:50:07;;;;;;;10.77;7.90;;;;;;;;;;4992718;28;20200;-28
2023/04/18 07:52:34;;;;;;;11.63;9.00;;;;;;;;;;4992845;28;20200;-26
2023/04/18 07:55:01;;;;;;;12.27;8.70;;;;;;;;;;5003830;28;20298;-28
2023/04/18 07:57:29;;;;;;;10.37;7.97;;;;;;;;;;5001167;28;20206;-25
2023/04/18 07:59:56;;;;;;;10.53;7.83;;;;;;;;;;4991120;28;20196;-29
2023/04/18 08:02:25;;;;;;;11.97;8.10;;;;;;;;;;5006024;28;20195;-27
2023/04/18 08:04:54;;;;;;;12.37;8.33;;;;;;;;;;4995984;28;20223;-25
2023/04/18 08:07:23;;;;;;;12.93;8.63;;;;;;;;;;4996752;28;20211;-29
2023/04/18 08:09:50;;;;;;;12.70;8.73;;;;;;;;;;5000806;28;20203;-25
2023/04/18 08:12:17;;;;;;;12.73;9.33;;;;;;;;;;4992270;28;20317;-26
2023/04/18 08:14:44;;;;;;;13.60;10.23;;;;;;;;;;4992696;28;20224;-26
2023/04/18 08:17:13;;;;;;;13.90;11.00;;;;;;;;;;4999142;28;20200;-25
2023/04/18 08:19:40;;;;;;;12.77;10.13;;;;;;;;;;5004100;28;20250;-29
2023/04/18 08:22:09;;;;;;;16.90;11.13;;;;;;;;;;5009367;28;20288;-27
2023/04/18 08:24:37;;;;;;;12.37;10.80;;;;;;;;;;5007116;28;20215;-28
2023/04/18 08:27:04;;;;;;;11.37;9.37;;;;;;;;;;5006521;28;20286;-30
2023/04/18 08:29:31;;;;;;;12.27;9.43;;;;;;;;;;5013656;28;20215;-26
2023/04/18 08:31:59;;;;;;;13.80;9.70;;;;;;;;;;5011211;28;20203;-27
2023/04/18 08:34:27;;;;;;;11.03;9.43;;;;;;;;;;5002950;28;20662;-29
2023/04/18 08:36:55;;;;;;;12.07;9.93;;;;;;;;;;4996413;28;20223;-26
2023/04/18 08:39:22;;;;;;;14.73;10.43;;;;;;;;;;4995468;28;20562;-26
2023/04/18 08:41:54;;;;;;;10.17;8.73;;;;;;;;;;4994155;28;20230;-27
2023/04/18 08:47:06;;;;;;;11.43;9.13;;;;;;;;;;5139687;22;20342;-28
2023/04/18 08:49:34;;;;;;;12.83;9.87;;;;;;;;;;5024292;28;20198;-29
2023/04/18 08:52:03;;;;;;;13.93;9.30;;;;;;;;;;5034152;28;20256;-27
2023/04/18 08:54:36;;;;;;;11.43;9.20;;;;;;;;;;5025390;28;20307;-28
2023/04/18 08:57:08;;;;;;;9.47;8.43;;;;;;;;;;5013208;28;20218;-27
2023/04/18 08:59:36;;;;;;;13.30;9.50;;;;;;;;;;5024965;28;20213;-30
2023/04/18 09:02:11;;;;;;;13.10;10.30;;;;;;;;;;5014533;28;20203;-26
2023/04/18 09:04:40;;;;;;;13.63;10.20;;;;;;;;;;5018330;28;20298;-28
2023/04/18 09:07:11;;;;;;;12.20;9.33;;;;;;;;;;5022693;28;20210;-26
2023/04/18 09:09:42;;;;;;;12.73;9.57;;;;;;;;;;5034890;28;20276;-27
2023/04/18 09:12:27;;;;;;;12.03;9.87;;;;;;;;;;5024332;28;20277;-29
2023/04/18 09:14:56;;;;;;;12.77;8.83;;;;;;;;;;5013091;28;20239;-28
2023/04/18 09:17:33;;;;;;;11.93;9.13;;;;;;;;;;5008254;28;20257;-26
2023/04/18 09:20:03;;;;;;;13.20;9.43;;;;;;;;;;5010709;28;20629;-28
2023/04/18 09:22:45;;;;;;;10.93;8.37;;;;;;;;;;5015214;28;20233;-32
2023/04/18 09:25:14;;;;;;;14.27;10.03;;;;;;;;;;5011392;28;20223;-29
2023/04/18 09:27:42;;;;;;;12.23;9.43;;;;;;;;;;5022437;28;20225;-27
2023/04/18 09:30:29;;;;;;;14.70;10.60;;;;;;;;;;5013871;28;20251;-29
2023/04/18 09:33:04;;;;;;;11.27;8.60;;;;;;;;;;5019683;28;20222;-29
2023/04/18 09:35:40;;;;;;;12.80;9.23;;;;;;;;;;5025734;28;20210;-29
2023/04/18 09:38:10;;;;;;;11.53;9.40;;;;;;;;;;5014255;28;20203;-28
2023/04/18 09:40:40;;;;;;;13.07;10.27;;;;;;;;;;5011968;28;20455;-25
2023/04/18 09:43:24;;;;;;;12.17;9.47;;;;;;;;;;5021738;28;20227;-28
2023/04/18 09:45:53;;;;;;;11.43;9.17;;;;;;;;;;4995073;28;20235;-29
2023/04/18 09:48:24;;;;;;;13.93;9.67;;;;;;;;;;5019513;28;20241;-27
2023/04/18 09:50:54;;;;;;;10.30;7.77;;;;;;;;;;5015376;28;20211;-26
2023/04/18 09:53:22;;;;;;;9.60;8.00;;;;;;;;;;5013956;28;20219;-28
2023/04/18 09:55:58;;;;;;;11.83;8.37;;;;;;;;;;5003190;28;20208;-26
2023/04/18 09:58:33;;;;;;;13.13;9.03;;;;;;;;;;5019041;28;20202;-28
2023/04/18 10:01:06;;;;;;;9.37;8.10;;;;;;;;;;5301370;22;20309;-40
2023/04/18 10:03:35;;;;;;;10.10;8.13;;;;;;;;;;5022241;28;21439;-36
2023/04/18 10:06:03;;;;;;;11.73;8.70;;;;;;;;;;5014049;28;20234;-42
2023/04/18 10:08:34;;;;;;;9.23;8.07;;;;;;;;;;5014218;28;20227;-33
2023/04/18 10:11:06;;;;;;;8.63;7.20;;;;;;;;;;5010114;28;20230;-38
2023/04/18 10:13:42;;;;;;;10.00;7.10;;;;;;;;;;5014436;28;20238;-34
2023/04/18 10:16:22;;;;;;;10.63;7.73;;;;;;;;;;5013640;28;20564;-35
2023/04/18 10:18:50;;;;;;;10.07;7.73;;;;;;;;;;5005545;28;20286;-36
2023/04/18 10:21:19;;;;;;;12.70;7.97;;;;;;;;;;5013412;28;20203;-34
2023/04/18 10:23:52;;;;;;;11.17;7.50;;;;;;;;;;5014162;28;20227;-37
2023/04/18 10:26:23;;;;;;;6.17;4.23;;;;;;;;;;5010481;28;20207;-33
2023/04/18 10:28:56;;;;;;;11.10;7.27;;;;;;;;;;5014298;28;20242;-36
2023/04/18 10:31:32;;;;;;;9.73;7.23;;;;;;;;;;5012485;28;20215;-36
2023/04/18 10:34:01;;;;;;;9.37;7.50;;;;;;;;;;5007515;28;20223;-36
2023/04/18 10:36:31;;;;;;;9.60;7.73;;;;;;;;;;5288651;22;20238;-28
2023/04/18 10:39:02;;;;;;;9.13;7.10;;;;;;;;;;5033152;28;20210;-29
2023/04/18 10:41:39;;;;;;;9.50;7.03;;;;;;;;;;5018897;28;20291;-31
2023/04/18 10:44:24;;;;;;;10.13;7.50;;;;;;;;;;5014682;28;20223;-28
2023/04/18 10:47:18;;;;;;;7.13;5.40;;;;;;;;;;5263698;22;20240;-26
2023/04/18 10:50:10;;;;;;;7.70;6.03;;;;;;;;;;5033789;28;20214;-30
2023/04/18 10:52:43;;;;;;;9.00;6.67;;;;;;;;;;5021053;28;20203;-27
2023/04/18 10:55:14;;;;;;;8.80;6.80;;;;;;;;;;5013821;28;20200;-29
2023/04/18 10:57:52;;;;;;;6.47;4.60;;;;;;;;;;4993602;28;20218;-30
2023/04/18 11:00:21;;;;;;;8.53;6.83;;;;;;;;;;5009054;28;20217;-28
2023/04/18 11:02:54;;;;;;;7.40;6.63;;;;;;;;;;4998612;28;20620;-29
2023/04/18 11:05:35;;;;;;;7.23;5.63;;;;;;;;;;4997600;28;20247;-26
2023/04/18 11:08:31;;;;;;;7.60;6.10;;;;;;;;;;4994130;28;20250;-28
2023/04/18 11:11:07;;;;;;;7.07;5.30;;;;;;;;;;4996659;28;20227;-26
2023/04/18 11:13:58;;;;;;;6.10;5.50;;;;;;;;;;4994196;28;20261;-27
2023/04/18 11:16:30;;;;;;;6.90;5.43;;;;;;;;;;5019979;28;20206;-30
2023/04/18 11:19:06;;;;;;;8.83;5.63;;;;;;;;;;4992879;28;20208;-30
2023/04/18 11:21:37;;;;;;;6.63;5.30;;;;;;;;;;5282624;22;20238;-27
2023/04/18 11:24:09;;;;;;;6.77;5.00;;;;;;;;;;5018892;28;20235;-30
2023/04/18 11:26:47;;;;;;;5.73;4.97;;;;;;;;;;5004926;28;20211;-28
2023/04/18 11:29:29;;;;;;;6.70;5.33;;;;;;;;;;5001389;28;20294;-29
2023/04/18 11:32:01;;;;;;;5.93;4.50;;;;;;;;;;4995847;28;20219;-31
2023/04/18 11:34:35;;;;;;;7.23;5.20;;;;;;;;;;5004502;28;20215;-28
2023/04/18 11:37:09;;;;;;;8.60;6.03;;;;;;;;;;4993665;28;20214;-30
2023/04/18 11:39:44;;;;;;;6.27;5.03;;;;;;;;;;4992950;28;20200;-27
2023/04/18 11:42:16;;;;;;;6.63;5.30;;;;;;;;;;5001887;28;20207;-30
2023/04/18 11:44:50;;;;;;;6.00;5.40;;;;;;;;;;5002970;28;20227;-27
2023/04/18 11:47:34;;;;;;;5.33;3.80;;;;;;;;;;5002763;28;20221;-30
2023/04/18 11:52:52;;;;;;;6.10;5.20;;;;;;;;;;5148683;22;20286;-27
2023/04/18 11:55:28;;;;;;;5.97;4.50;;;;;;;;;;5055815;28;20285;-28
2023/04/18 11:58:01;;;;;;;6.60;4.83;;;;;;;;;;5045001;28;20214;-28
2023/04/18 12:00:45;;;;;;;5.37;4.53;;;;;;;;;;5053710;28;20292;-28
2023/04/18 12:03:18;;;;;;;6.23;4.73;;;;;;;;;;5058062;28;20229;-29
2023/04/18 12:05:52;;;;;;;6.93;3.70;;;;;;;;;;5049903;28;20240;-26
2023/04/18 12:08:21;;;;;;;8.43;5.43;;;;;;;;;;5035498;28;20269;-28
2023/04/18 12:11:25;;;;;;;6.43;5.30;;;;;;;;;;5047785;28;20221;-29
2023/04/18 12:13:59;;;;;;;6.40;5.53;;;;;;;;;;5058672;28;20338;-29
2023/04/18 12:16:33;;;;;;;6.40;5.10;;;;;;;;;;5051417;28;20207;-26
2023/04/18 12:19:19;;;;;;;5.93;5.17;;;;;;;;;;5045151;28;20197;-29
2023/04/18 12:21:59;;;;;;;4.57;3.80;;;;;;;;;;5054077;28;20200;-27
2023/04/18 12:24:31;;;;;;;4.93;4.43;;;;;;;;;;5053694;28;20324;-26
2023/04/18 12:27:02;;;;;;;5.03;4.07;;;;;;;;;;5045717;28;20553;-28
2023/04/18 12:29:33;;;;;;;6.33;4.40;;;;;;;;;;5043240;28;20213;-30
2023/04/18 12:32:13;;;;;;;4.10;3.70;;;;;;;;;;5053764;28;20197;-28
2023/04/18 12:34:55;;;;;;;4.27;3.80;;;;;;;;;;5043094;28;20316;-29
2023/04/18 12:37:30;;;;;;;4.73;4.20;;;;;;;;;;5053867;28;20198;-29
2023/04/18 12:40:01;;;;;;;5.30;4.00;;;;;;;;;;5053260;28;20206;-26
2023/04/18 12:42:40;;;;;;;6.37;5.03;;;;;;;;;;5050662;28;20198;-27
2023/04/18 12:45:29;;;;;;;7.83;5.13;;;;;;;;;;5024253;28;20221;-26
2023/04/18 12:48:07;;;;;;;5.73;4.87;;;;;;;;;;5048358;28;20428;-28
2023/04/18 12:50:37;;;;;;;6.03;4.27;;;;;;;;;;5050229;28;20201;-25
2023/04/18 12:53:09;;;;;;;5.47;3.43;;;;;;;;;;5043832;28;20233;-29
2023/04/18 12:55:40;;;;;;;4.57;4.10;;;;;;;;;;5045132;28;20198;-30
2023/04/18 12:58:21;;;;;;;4.70;4.30;;;;;;;;;;5053055;28;20198;-27
2023/04/18 13:00:49;;;;;;;5.33;4.30;;;;;;;;;;5053046;28;20267;-29
2023/04/18 13:03:26;;;;;;;4.53;4.13;;;;;;;;;;5049159;28;20294;-26
2023/04/18 13:06:00;;;;;;;5.00;4.23;;;;;;;;;;5048605;28;20213;-27
2023/04/18 13:08:41;;;;;;;4.70;3.80;;;;;;;;;;5053442;28;20205;-28
2023/04/18 13:11:10;;;;;;;4.60;3.93;;;;;;;;;;5053865;28;20197;-30
2023/04/18 13:13:54;;;;;;;4.87;3.47;;;;;;;;;;5061137;28;20219;-26
2023/04/18 13:16:28;;;;;;;5.97;4.20;;;;;;;;;;5051362;28;20201;-28
2023/04/18 13:19:01;;;;;;;5.47;4.30;;;;;;;;;;5039313;28;20197;-29
2023/04/18 13:21:36;;;;;;;4.27;3.60;;;;;;;;;;5043498;28;20256;-27
2023/04/18 13:24:06;;;;;;;5.23;3.33;;;;;;;;;;5039152;28;20221;-26
2023/04/18 13:26:36;;;;;;;3.30;3.00;;;;;;;;;;5045292;28;20190;-29
2023/04/18 13:29:10;;;;;;;3.80;3.50;;;;;;;;;;5049520;28;20207;-26
2023/04/18 13:31:39;;;;;;;4.30;3.90;;;;;;;;;;5037005;28;20207;-28
2023/04/18 13:34:07;;;;;;;3.90;3.33;;;;;;;;;;5047441;28;20226;-28
2023/04/18 13:36:39;;;;;;;4.30;3.70;;;;;;;;;;5045937;28;20398;-26
2023/04/18 13:39:10;;;;;;;4.20;3.67;;;;;;;;;;5039478;28;20198;-27
2023/04/18 13:41:45;;;;;;;4.23;3.50;;;;;;;;;;5046385;28;20200;-26
2023/04/18 13:44:16;;;;;;;3.93;3.30;;;;;;;;;;5046252;28;20298;-26
2023/04/18 13:46:44;;;;;;;4.57;3.17;;;;;;;;;;5051181;28;20229;-30
2023/04/18 13:49:19;;;;;;;3.83;3.43;;;;;;;;;;5042405;28;20221;-27
2023/04/18 13:51:49;;;;;;;3.87;3.23;;;;;;;;;;5034257;28;20210;-26
2023/04/18 13:54:25;;;;;;;5.60;3.47;;;;;;;;;;5051031;28;20215;-29
2023/04/18 13:56:58;;;;;;;4.13;3.07;;;;;;;;;;5041299;28;20202;-26
2023/04/18 13:59:27;;;;;;;6.80;3.90;;;;;;;;;;5045910;28;20195;-29
2023/04/18 14:02:01;;;;;;;3.70;3.40;;;;;;;;;;5047187;28;20277;-26
2023/04/18 14:04:37;;;;;;;4.07;3.13;;;;;;;;;;5299111;22;20268;-27
2023/04/18 14:07:09;;;;;;;4.83;3.97;;;;;;;;;;5027819;28;20227;-29
2023/04/18 14:09:46;;;;;;;4.53;3.90;;;;;;;;;;5113403;22;21009;-28
2023/04/18 14:12:19;;;;;;;5.70;4.13;;;;;;;;;;5034415;28;20224;-29
2023/04/18 14:14:51;;;;;;;4.43;3.57;;;;;;;;;;5286561;22;20238;-26
2023/04/18 14:17:22;;;;;;;4.53;4.13;;;;;;;;;;5029665;28;20241;-28
2023/04/18 14:19:57;;;;;;;5.40;4.17;;;;;;;;;;5031041;28;20219;-29
2023/04/18 14:22:28;;;;;;;3.33;2.80;;;;;;;;;;5024267;28;20208;-29
2023/04/18 14:24:55;;;;;;;2.17;1.97;;;;;;;;;;5027425;28;20241;-28
2023/04/18 14:27:24;;;;;;;4.43;3.70;;;;;;;;;;4997671;28;20235;-27
2023/04/18 14:29:56;;;;;;;6.27;4.17;;;;;;;;;;5002515;28;20204;-29
2023/04/18 14:32:23;;;;;;;5.00;4.03;;;;;;;;;;4999983;28;20633;-29
2023/04/18 14:35:02;;;;;;;5.07;4.50;;;;;;;;;;5006930;28;20252;-29
2023/04/18 14:37:31;;;;;;;4.40;4.00;;;;;;;;;;4993361;28;20288;-29
2023/04/18 14:39:58;;;;;;;5.53;3.83;;;;;;;;;;4995400;28;20208;-28
2023/04/18 14:42:30;;;;;;;4.23;3.83;;;;;;;;;;5004463;28;20200;-27
2023/04/18 14:45:04;;;;;;;6.33;4.27;;;;;;;;;;5005937;28;20228;-28
2023/04/18 14:47:33;;;;;;;5.70;4.13;;;;;;;;;;5001404;28;20215;-30
2023/04/18 14:50:06;;;;;;;7.00;4.23;;;;;;;;;;4997276;28;20205;-28
2023/04/18 14:52:39;;;;;;;4.00;3.60;;;;;;;;;;5002709;28;20208;-28
2023/04/18 14:55:26;;;;;;;4.20;3.60;;;;;;;;;;5004206;28;20216;-28
2023/04/18 14:58:12;;;;;;;3.90;3.53;;;;;;;;;;5003394;28;20200;-27
2023/04/18 15:00:52;;;;;;;4.23;3.57;;;;;;;;;;5010290;28;20208;-27
2023/04/18 15:03:30;;;;;;;4.23;3.83;;;;;;;;;;5005507;28;20223;-27
2023/04/18 15:06:01;;;;;;;4.10;3.63;;;;;;;;;;5040615;22;20230;-27
2023/04/18 15:08:56;;;;;;;3.93;3.53;;;;;;;;;;5025598;28;20195;-27
2023/04/18 15:11:32;;;;;;;3.27;3.00;;;;;;;;;;5028531;28;20211;-27
2023/04/18 15:14:01;;;;;;;4.07;3.67;;;;;;;;;;5029751;22;20749;-27
2023/04/18 15:16:40;;;;;;;3.43;2.93;;;;;;;;;;5005381;28;20224;-28
2023/04/18 15:19:29;;;;;;;4.07;3.27;;;;;;;;;;5001815;28;20203;-27
2023/04/18 15:21:58;;;;;;;4.43;3.87;;;;;;;;;;5004038;28;20208;-29
2023/04/18 15:24:38;;;;;;;8.00;4.60;;;;;;;;;;5005001;28;20270;-25
2023/04/18 15:27:10;;;;;;;3.93;3.53;;;;;;;;;;4999530;28;20340;-27
2023/04/18 15:29:44;;;;;;;4.27;3.83;;;;;;;;;;5004761;28;20228;-27
2023/04/18 15:32:20;;;;;;;4.40;3.20;;;;;;;;;;4993414;28;20271;-27
2023/04/18 15:34:56;;;;;;;3.50;3.10;;;;;;;;;;5000778;28;20219;-27
2023/04/18 15:37:30;;;;;;;3.37;3.03;;;;;;;;;;5010438;28;20218;-28
2023/04/18 15:40:05;;;;;;;4.07;3.40;;;;;;;;;;5000765;28;20255;-26
2023/04/18 15:45:11;;;;;;;4.07;3.60;;;;;;;;;;5018779;22;20224;-29
2023/04/18 15:47:45;;;;;;;3.80;3.30;;;;;;;;;;5009137;28;20287;-27
2023/04/18 15:50:14;;;;;;;3.93;3.53;;;;;;;;;;5011903;28;20204;-28
2023/04/18 15:52:43;;;;;;;3.80;3.50;;;;;;;;;;5012868;28;20222;-26
2023/04/18 15:55:20;;;;;;;5.33;4.03;;;;;;;;;;5016522;28;20191;-27
2023/04/18 15:57:52;;;;;;;4.20;3.53;;;;;;;;;;5010722;28;20291;-27
2023/04/18 16:00:23;;;;;;;3.50;3.20;;;;;;;;;;5009822;28;20192;-29